Placerville, CA (95667)

3:04 AM PDT en Septiembre 21, 2014 (GMT -0700)
Ladera Lane | Change Station
CLOSE
Current Station
Estación meteorológica personal
Location: Placerville, CA
Altura: 2090 ft
Estaciones meteorológicas cercanas

Alt 2090 ft 38.74 °N, 120.78 °W | Updated 15 seconds ago

Overcast
Nublado
67.4 ° F
Sensación térmica 67.4 ° F
N
0.0
Viento Variable Viento desde SSO
Gusts 0.0 mph

Hoy
Alta -- | Baja -- ° F
--% Posibilidad de precipitaciones
Ayer
Alta -- | Baja -- ° F
Precip. -- pul
6:50 AM 7:01 PM
Creciente menguante, 7% visible
Presión 29.97 pul
Visibilidad 10.0 Millas
Nubes Nublado 7500 ft
Punto de rocío 54 ° F
Humedad 62%
Precipitaciones 0.00 pul
Espesor de la nieve 1 in , 0 in , 0 in
UV 0 de una escala de 12
Polen 5.60 de una escala de 12
Calidad del aire No disponible.
Flu Activity No disponible.
METAR KPVF 210955Z AUTO 21004KT 10SM OVC075 19/10 A2997 RMK AO1

More Conditions Fewer Conditions

Presión 29.97 pul
Visibilidad 10.0 Millas
Nubes Nublado 7500 ft
Punto de rocío 54 ° F
Humedad 62%
Precipitaciones 0.00 pul
Espesor de la nieve 1 in , 0 in , 0 in
UV 0 de una escala de 12
Polen 5.60 de una escala de 12
Calidad del aire No disponible.
Flu Activity No disponible.
METAR KPVF 210955Z AUTO 21004KT 10SM OVC075 19/10 A2997 RMK AO1

More Conditions Fewer Conditions

10-Day Weather Forecast

Almanac

Astronomía

Sep. 21, 2014 Salida Puesta
Hora real 6:50 AM PDT 7:01 PM PDT
Crepúsculo civil 6:23 AM PDT 7:28 PM PDT
Crepúsculo náutico 5:52 AM PDT 7:59 PM PDT
Crepúsculo astronómico 5:20 AM PDT 8:30 PM PDT
Luna 4:29 AM PDT 5:39 PM PDT
Horas de luz 13h 04m
Horas de luz
12h 11m
Tomorrow will be 2m 30s shorter.
Creciente menguante, 7% of the Moon is Illuminated
Hoy
Creciente menguante
Sep 24
Nueva
Oct 1
Cuarto creciente
Oct 8
Luna llena
Oct 15
Cuarto menguante

Extremos de hoy

Máximos del estado Bajos del estado

Community

WunderPhotos

Upload Photos

1,755,106 ¡fotos cargadas!

Nearby

Calidad del aire

  Calidad del aire Índice AQ Contaminante
Ayer Buena
OZONE
Domingo Buena
OZONE
Lunes Buena
OZONE
Martes Moderada
OZONE
Miércoles Buena
OZONE
Jueves Buena
OZONE

Grosos de nieve

Estación Profundido Altura
Leavitt Lake 1 in 9400 ft
Tahoe City Cross 0 in 6750 ft
Leavitt Meadows 0 in 7200 ft
Spratt Creek 1 in 6200 ft
Monitor Pass 0 in 8350 ft

Actividad de terremotos

Ciudad Distance Mag. Tiempo y dato
Livermore, California 89 Millas 2.6 3:37 AM PDT
2014-09-19
The Geysers, California 104 Millas 2.5 11:29 PM PDT
2014-09-17
Magnitud mínima muestra es 2,5.

Temperaturas de aguas costeras

Lugar Temperatura
Sin partes meteorológicos de las estaciones

Estaciones meteorológicas cercanas